Terminal Aerodrome Forecast
Issued by NWS Duluth, MN

Home | Current Version | Previous Version | Text Only | Print | Product List | Glossary On
Versions: 1 2 3 4 5 6 7 8 9 10 11 12 13 14 15 16 17 18 19
000
FTUS43 KDLH 221139
TAFINL
TAF
KINL 221139Z 2212/2312 16005KT P6SM FEW250
     FM221500 19012G18KT P6SM SCT250
     FM221800 19014G23KT P6SM SCT250
     FM230100 17008KT P6SM BKN080
     FM230900 15006KT P6SM VCSH BKN045 PROB30 2309/2312 4SM TSRA BR
      OVC025CB=

USA.gov is the U.S. government's official web portal to all federal, state and local government web resources and services.